Time;durP1;ratioP1;P1;durP2;ratioP2;P2;SDS_P1;SDS_P2;PMS_P1;PMS_P2;Temp;Humidity;BMP_temperature;BMP_pressure;BME280_temperature;BME280_humidity;BME280_pressure;Samples;Min_cycle;Max_cycle;Signal;HPM_P1;HPM_P2
2023/01/06 00:00:27;;;;;;;4.17;2.57;;;13.20;99.90;;;;;;5083571;28;21026;-74
2023/01/06 00:02:52;;;;;;;3.97;1.23;;;13.20;99.90;;;;;;5105776;28;20580;-74
2023/01/06 00:05:18;;;;;;;5.90;1.47;;;13.20;99.90;;;;;;5095148;28;20290;-74
2023/01/06 00:07:44;;;;;;;3.70;1.30;;;13.20;99.90;;;;;;5091022;28;20175;-74
2023/01/06 00:10:10;;;;;;;2.40;1.50;;;13.20;99.90;;;;;;5109323;28;20197;-74
2023/01/06 00:12:36;;;;;;;5.70;1.50;;;13.20;99.90;;;;;;5108882;28;20253;-74
2023/01/06 00:15:02;;;;;;;2.87;1.50;;;13.20;99.90;;;;;;5090755;28;20665;-74
2023/01/06 00:17:29;;;;;;;2.50;1.40;;;13.20;99.90;;;;;;5108856;28;20963;-74
2023/01/06 00:19:55;;;;;;;3.47;1.35;;;13.20;99.90;;;;;;5108406;28;20568;-74
2023/01/06 00:22:21;;;;;;;2.40;1.20;;;13.20;99.90;;;;;;5090407;28;20182;-75
2023/01/06 00:24:46;;;;;;;2.23;1.23;;;13.20;99.90;;;;;;5107361;28;20628;-74
2023/01/06 00:27:12;;;;;;;2.10;1.03;;;13.20;99.90;;;;;;5107792;28;20198;-74
2023/01/06 00:29:38;;;;;;;2.73;1.13;;;13.20;99.90;;;;;;5105406;28;20192;-74
2023/01/06 00:32:04;;;;;;;2.70;0.97;;;13.20;99.90;;;;;;5088205;28;20691;-74
2023/01/06 00:34:29;;;;;;;3.07;0.90;;;13.20;99.90;;;;;;5090676;28;20187;-74
2023/01/06 00:36:55;;;;;;;1.50;1.13;;;13.20;99.90;;;;;;5093491;28;20600;-75
2023/01/06 00:39:22;;;;;;;2.07;0.97;;;13.20;99.90;;;;;;5092626;28;20241;-74
2023/01/06 00:42:03;;;;;;;1.45;0.75;;;13.20;99.90;;;;;;5090063;28;20577;-74
2023/01/06 00:44:30;;;;;;;2.97;0.85;;;13.20;99.90;;;;;;5090567;28;20234;-74
2023/01/06 00:46:55;;;;;;;2.08;0.90;;;13.20;99.90;;;;;;5090736;28;20179;-74
2023/01/06 00:49:21;;;;;;;3.13;0.90;;;13.20;99.90;;;;;;5090785;28;20192;-75
2023/01/06 00:51:47;;;;;;;2.13;0.70;;;13.20;99.90;;;;;;5091816;28;20193;-74
2023/01/06 00:54:13;;;;;;;1.80;0.70;;;13.20;99.90;;;;;;5090069;28;20224;-74
2023/01/06 00:56:41;;;;;;;2.10;0.60;;;13.20;99.90;;;;;;5090842;28;21125;-75
2023/01/06 00:59:08;;;;;;;3.80;0.90;;;13.20;99.90;;;;;;5073460;28;21369;-74
2023/01/06 01:01:34;;;;;;;3.92;0.68;;;13.20;99.90;;;;;;5090191;28;20179;-74
2023/01/06 01:04:00;;;;;;;1.40;0.60;;;13.20;99.90;;;;;;5097906;28;20214;-74
2023/01/06 01:06:26;;;;;;;4.72;0.98;;;13.20;99.90;;;;;;5109877;28;20591;-74
2023/01/06 01:08:57;;;;;;;1.63;0.80;;;13.10;99.90;;;;;;5110712;28;20167;-74
2023/01/06 01:14:09;;;;;;;2.05;0.60;;;13.10;99.90;;;;;;5110944;28;20247;-75
2023/01/06 01:16:34;;;;;;;1.65;0.68;;;13.10;99.90;;;;;;5112233;28;20186;-74
2023/01/06 01:19:00;;;;;;;2.17;0.60;;;13.10;99.90;;;;;;5110393;28;20163;-75
2023/01/06 01:21:28;;;;;;;2.30;0.80;;;13.10;99.90;;;;;;5108006;28;20171;-75
2023/01/06 01:23:54;;;;;;;3.47;0.70;;;13.10;99.90;;;;;;5090891;28;20624;-74
2023/01/06 01:26:19;;;;;;;1.77;0.50;;;13.10;99.90;;;;;;5090385;28;20183;-75
2023/01/06 01:28:45;;;;;;;2.03;0.67;;;13.10;99.90;;;;;;5090408;28;20279;-74
2023/01/06 01:31:12;;;;;;;2.13;0.70;;;13.10;99.90;;;;;;5089431;28;20218;-75
2023/01/06 01:33:38;;;;;;;2.00;0.70;;;13.10;99.90;;;;;;5091048;28;20979;-75
2023/01/06 01:36:15;;;;;;;4.17;0.80;;;13.10;99.90;;;;;;5089816;28;20582;-75
2023/01/06 01:38:41;;;;;;;1.90;0.80;;;13.10;99.90;;;;;;5090023;28;20586;-75
2023/01/06 01:41:11;;;;;;;1.43;0.60;;;13.10;99.90;;;;;;5089464;28;21067;-75
2023/01/06 01:43:54;;;;;;;3.05;0.80;;;13.10;99.90;;;;;;5089531;28;20195;-75
2023/01/06 01:46:28;;;;;;;1.40;0.68;;;13.10;99.90;;;;;;5088940;28;20175;-74
2023/01/06 01:48:59;;;;;;;1.80;0.70;;;13.10;99.90;;;;;;5090030;28;20168;-75
2023/01/06 01:51:30;;;;;;;4.10;1.23;;;13.10;99.90;;;;;;5073270;28;20621;-75
2023/01/06 01:54:00;;;;;;;2.38;0.73;;;13.10;99.90;;;;;;5092607;28;20747;-75
2023/01/06 01:56:30;;;;;;;2.28;0.70;;;13.10;99.90;;;;;;5095002;28;20175;-73
2023/01/06 01:59:10;;;;;;;3.42;0.80;;;13.10;99.90;;;;;;5100931;28;20174;-74
2023/01/06 02:01:36;;;;;;;4.90;1.10;;;13.10;99.90;;;;;;5101625;28;20283;-74
2023/01/06 02:04:02;;;;;;;3.20;0.80;;;13.10;99.90;;;;;;5071829;28;20274;-74
2023/01/06 02:06:29;;;;;;;1.55;0.93;;;13.10;99.90;;;;;;5089346;28;20182;-73
2023/01/06 02:09:04;;;;;;;2.20;0.70;;;13.10;99.90;;;;;;5072394;28;20536;-74
2023/01/06 02:11:34;;;;;;;2.60;0.83;;;13.10;99.90;;;;;;5098292;28;20266;-74
2023/01/06 02:14:21;;;;;;;5.00;0.80;;;13.10;99.90;;;;;;5109139;28;20587;-73
2023/01/06 02:17:03;;;;;;;1.45;0.70;;;13.10;99.90;;;;;;5092475;28;20202;-73
2023/01/06 02:19:47;;;;;;;3.03;0.80;;;13.10;99.90;;;;;;5092643;28;20273;-73
2023/01/06 02:22:37;;;;;;;1.95;0.75;;;13.10;99.90;;;;;;5092064;28;20196;-73
2023/01/06 02:25:03;;;;;;;2.97;0.70;;;13.10;99.90;;;;;;5109061;28;20199;-73
2023/01/06 02:28:14;;;;;;;2.38;0.75;;;13.10;99.90;;;;;;5083828;28;20247;-73
2023/01/06 02:30:46;;;;;;;3.10;0.60;;;13.10;99.90;;;;;;5104874;28;20198;-73
2023/01/06 02:33:37;;;;;;;2.45;0.80;;;13.10;99.90;;;;;;5071037;28;20163;-73
2023/01/06 02:36:29;;;;;;;3.80;0.73;;;13.00;99.90;;;;;;5089016;28;20215;-73
2023/01/06 02:39:26;;;;;;;1.87;0.80;;;13.10;99.90;;;;;;5034169;28;20175;-73
2023/01/06 02:42:21;;;;;;;6.07;0.73;;;13.10;99.90;;;;;;5071471;28;20633;-73
2023/01/06 02:45:06;;;;;;;1.40;0.60;;;13.10;99.90;;;;;;5071010;28;20199;-73
2023/01/06 02:47:58;;;;;;;4.25;0.80;;;13.00;99.90;;;;;;5071770;28;20168;-73
2023/01/06 02:50:44;;;;;;;2.17;0.70;;;13.00;99.90;;;;;;5088514;28;20563;-73
2023/01/06 02:53:33;;;;;;;2.33;0.68;;;13.00;99.90;;;;;;5054071;28;20168;-73
2023/01/06 02:55:59;;;;;;;3.10;0.80;;;13.00;99.90;;;;;;5088573;28;20504;-73
2023/01/06 02:58:47;;;;;;;1.75;0.70;;;13.00;99.90;;;;;;5070405;28;20171;-73
2023/01/06 03:01:26;;;;;;;1.92;0.60;;;13.00;99.90;;;;;;5088131;28;20196;-73
2023/01/06 03:03:52;;;;;;;1.40;0.70;;;13.10;99.90;;;;;;5087621;28;20211;-73
2023/01/06 03:06:26;;;;;;;2.85;0.70;;;13.10;99.90;;;;;;5090552;28;20690;-73
2023/01/06 03:08:55;;;;;;;2.20;0.70;;;13.10;99.90;;;;;;5088746;28;20175;-73
2023/01/06 03:11:22;;;;;;;2.40;1.73;;;13.10;99.90;;;;;;5087851;28;20215;-73
2023/01/06 03:14:14;;;;;;;3.10;0.77;;;13.10;99.90;;;;;;5054349;28;20183;-73
2023/01/06 03:16:40;;;;;;;1.38;0.65;;;13.10;99.90;;;;;;5054660;28;20290;-73
2023/01/06 03:19:06;;;;;;;1.70;0.80;;;13.10;99.90;;;;;;5071434;28;20706;-73
2023/01/06 03:21:36;;;;;;;1.93;0.73;;;13.10;99.90;;;;;;5099819;22;20667;-78
2023/01/06 03:24:05;;;;;;;2.20;0.60;;;13.10;99.90;;;;;;5067508;28;20642;-79
2023/01/06 03:26:31;;;;;;;3.40;0.87;;;13.10;99.90;;;;;;5034483;28;20199;-79
2023/01/06 03:28:59;;;;;;;4.40;0.98;;;13.10;99.90;;;;;;5051646;28;20583;-79
2023/01/06 03:31:38;;;;;;;2.55;0.80;;;13.10;99.90;;;;;;5071187;28;20269;-78
2023/01/06 03:34:15;;;;;;;3.63;0.68;;;13.10;99.90;;;;;;5050970;28;20207;-79
2023/01/06 03:37:04;;;;;;;1.93;0.73;;;13.10;99.90;;;;;;5051049;28;20203;-79
2023/01/06 03:39:49;;;;;;;3.00;0.60;;;13.10;99.90;;;;;;5068177;28;20587;-79
2023/01/06 03:45:43;;;;;;;3.95;0.60;;;13.10;99.90;;;;;;5067477;28;20215;-79
2023/01/06 03:48:27;;;;;;;5.80;0.77;;;13.10;99.90;;;;;;5051219;28;20253;-79
2023/01/06 03:51:25;;;;;;;2.35;0.60;;;13.10;99.90;;;;;;5067754;28;20530;-80
2023/01/06 03:54:12;;;;;;;1.95;0.60;;;13.10;99.90;;;;;;5068683;28;20644;-80
2023/01/06 03:57:01;;;;;;;1.48;0.60;;;13.10;99.90;;;;;;5034320;28;20669;-80
2023/01/06 03:59:31;;;;;;;1.45;0.70;;;13.10;99.90;;;;;;5069084;28;20246;-79
2023/01/06 04:01:59;;;;;;;4.75;0.93;;;13.10;99.90;;;;;;5067357;28;20724;-78
2023/01/06 04:04:25;;;;;;;3.40;0.70;;;13.10;99.90;;;;;;5067369;28;20271;-78
2023/01/06 04:06:52;;;;;;;2.95;0.70;;;13.10;99.90;;;;;;5050930;28;20176;-79
2023/01/06 04:09:18;;;;;;;1.95;0.70;;;13.10;99.90;;;;;;5041459;28;20183;-79
2023/01/06 04:14:32;;;;;;;3.80;0.60;;;13.10;99.90;;;;;;5071782;28;20504;-79
2023/01/06 04:17:00;;;;;;;3.15;0.60;;;13.20;99.90;;;;;;5055302;28;20586;-80
2023/01/06 04:19:27;;;;;;;2.65;0.70;;;13.10;99.90;;;;;;5054711;28;20707;-80
2023/01/06 04:21:53;;;;;;;2.07;0.60;;;13.10;99.90;;;;;;5071052;28;20329;-79
2023/01/06 04:24:19;;;;;;;1.73;0.80;;;13.10;99.90;;;;;;5053668;28;20735;-79
2023/01/06 04:26:45;;;;;;;3.10;0.70;;;13.10;99.90;;;;;;5071466;28;20176;-79
2023/01/06 04:29:11;;;;;;;1.40;0.60;;;13.10;99.90;;;;;;5054002;28;20161;-80
2023/01/06 04:31:37;;;;;;;2.13;0.90;;;13.10;99.90;;;;;;5037434;28;20184;-80
2023/01/06 04:34:03;;;;;;;1.97;0.60;;;13.10;99.90;;;;;;5070240;28;20187;-80
2023/01/06 04:36:30;;;;;;;1.70;0.60;;;13.10;99.90;;;;;;5054489;28;20255;-80
2023/01/06 04:38:56;;;;;;;4.15;0.68;;;13.20;99.90;;;;;;5053967;28;21219;-80
2023/01/06 04:41:22;;;;;;;1.97;0.60;;;13.10;99.90;;;;;;5053612;28;20200;-80
2023/01/06 04:43:48;;;;;;;2.20;0.80;;;13.10;99.90;;;;;;5070488;28;20231;-79
2023/01/06 04:46:13;;;;;;;2.53;0.70;;;13.10;99.90;;;;;;5076295;28;20542;-80
2023/01/06 04:48:39;;;;;;;1.90;0.60;;;13.10;99.90;;;;;;5071159;28;20669;-79
2023/01/06 04:51:07;;;;;;;6.83;0.60;;;13.10;99.90;;;;;;5070322;28;20200;-79
2023/01/06 04:53:38;;;;;;;1.60;0.57;;;13.10;99.90;;;;;;5070207;28;20168;-79
2023/01/06 04:56:05;;;;;;;1.40;0.60;;;13.10;99.90;;;;;;5070212;28;20579;-80
2023/01/06 04:58:31;;;;;;;4.90;0.65;;;13.10;99.90;;;;;;5071984;28;20620;-79
2023/01/06 05:01:01;;;;;;;1.63;0.60;;;13.20;99.90;;;;;;5070145;28;20168;-80
2023/01/06 05:03:27;;;;;;;2.38;0.75;;;13.20;99.90;;;;;;5036568;28;20570;-78
2023/01/06 05:05:53;;;;;;;1.90;0.50;;;13.20;99.90;;;;;;5068779;28;20172;-79
2023/01/06 05:08:19;;;;;;;1.70;0.67;;;13.20;99.90;;;;;;5066749;28;20191;-79
2023/01/06 05:10:45;;;;;;;2.17;0.73;;;13.20;99.90;;;;;;5030067;28;20177;-79
2023/01/06 05:13:10;;;;;;;1.43;0.57;;;13.20;99.90;;;;;;5029557;28;20616;-79
2023/01/06 05:15:38;;;;;;;1.50;0.60;;;13.30;99.90;;;;;;5046699;28;20637;-79
2023/01/06 05:18:03;;;;;;;2.10;0.70;;;13.30;99.90;;;;;;5047012;28;20190;-78
2023/01/06 05:20:29;;;;;;;2.40;0.50;;;13.30;99.90;;;;;;5030354;28;20173;-79
2023/01/06 05:22:55;;;;;;;2.30;0.70;;;13.30;99.90;;;;;;5051104;28;20635;-78
2023/01/06 05:25:20;;;;;;;1.40;0.60;;;13.30;99.90;;;;;;5047210;28;20614;-79
2023/01/06 05:27:46;;;;;;;2.33;0.60;;;13.30;99.90;;;;;;5029958;28;20578;-79
2023/01/06 05:30:12;;;;;;;1.30;0.50;;;13.30;99.90;;;;;;5046925;28;20265;-79
2023/01/06 05:32:38;;;;;;;1.23;0.50;;;13.30;99.90;;;;;;5030794;28;20305;-79
2023/01/06 05:35:03;;;;;;;1.90;0.60;;;13.30;99.90;;;;;;5046304;28;20589;-78
2023/01/06 05:37:29;;;;;;;1.70;0.60;;;13.30;99.90;;;;;;5040612;28;20666;-79
2023/01/06 05:39:55;;;;;;;2.13;0.63;;;13.30;99.90;;;;;;5033243;28;21121;-79
2023/01/06 05:42:20;;;;;;;1.20;0.50;;;13.30;99.90;;;;;;5032972;28;20205;-78
2023/01/06 05:44:46;;;;;;;1.40;0.57;;;13.30;99.90;;;;;;5049222;28;20283;-79
2023/01/06 05:47:12;;;;;;;2.73;0.50;;;13.40;99.90;;;;;;5049357;28;20184;-79
2023/01/06 05:49:38;;;;;;;1.77;0.50;;;13.40;99.90;;;;;;5049624;28;20593;-79
2023/01/06 05:52:03;;;;;;;1.77;0.50;;;13.40;99.90;;;;;;5048765;28;20196;-79
2023/01/06 05:54:29;;;;;;;2.20;0.50;;;13.40;99.90;;;;;;5048619;28;20553;-80
2023/01/06 05:56:55;;;;;;;1.40;0.50;;;13.40;99.90;;;;;;5049454;28;20184;-80
2023/01/06 05:59:20;;;;;;;1.23;0.50;;;13.40;99.90;;;;;;5032606;28;20690;-80
2023/01/06 06:01:49;;;;;;;1.10;0.45;;;13.40;99.90;;;;;;5050318;28;20209;-80
2023/01/06 06:04:15;;;;;;;2.17;0.50;;;13.40;99.90;;;;;;5048674;28;20195;-80
2023/01/06 06:06:41;;;;;;;1.60;0.50;;;13.50;99.90;;;;;;5031616;28;20168;-79
2023/01/06 06:09:07;;;;;;;1.30;0.50;;;13.50;99.90;;;;;;5032549;28;20173;-79
2023/01/06 06:11:33;;;;;;;1.25;0.47;;;13.50;99.90;;;;;;5050275;28;20196;-79
2023/01/06 06:13:58;;;;;;;1.73;0.50;;;13.50;99.90;;;;;;5047580;28;20169;-79
2023/01/06 06:16:27;;;;;;;1.33;0.60;;;13.50;99.90;;;;;;5032463;28;20173;-79
2023/01/06 06:18:54;;;;;;;1.70;0.50;;;13.50;99.90;;;;;;5048907;28;20177;-79
2023/01/06 06:21:23;;;;;;;1.70;0.50;;;13.50;99.90;;;;;;5048443;28;20693;-79
2023/01/06 06:23:52;;;;;;;4.20;0.60;;;13.50;99.90;;;;;;5048445;28;20615;-79
2023/01/06 06:26:18;;;;;;;3.13;1.43;;;13.50;99.90;;;;;;5032635;28;20179;-79
2023/01/06 06:28:44;;;;;;;1.40;0.60;;;13.50;99.90;;;;;;5032248;28;20574;-79
2023/01/06 06:31:16;;;;;;;1.63;0.60;;;13.50;99.90;;;;;;5048378;28;20232;-78
2023/01/06 06:33:42;;;;;;;2.00;0.60;;;13.50;99.90;;;;;;5049719;28;20177;-79
2023/01/06 06:36:11;;;;;;;2.40;0.70;;;13.60;99.90;;;;;;5032016;28;20220;-79
2023/01/06 06:38:37;;;;;;;1.70;0.53;;;13.60;99.90;;;;;;5051732;28;20580;-78
2023/01/06 06:41:03;;;;;;;1.53;0.50;;;13.60;99.90;;;;;;5049503;28;20576;-78
2023/01/06 06:43:29;;;;;;;1.20;0.40;;;13.60;99.90;;;;;;5031407;28;20675;-79
2023/01/06 06:45:55;;;;;;;1.30;0.60;;;13.60;99.90;;;;;;5049551;28;20675;-79
2023/01/06 06:48:21;;;;;;;1.60;0.50;;;13.60;99.90;;;;;;5048915;28;20598;-79
2023/01/06 06:50:56;;;;;;;1.80;0.60;;;13.60;99.90;;;;;;5031431;28;20175;-80
2023/01/06 06:53:22;;;;;;;2.07;0.50;;;13.60;99.90;;;;;;5047796;28;20185;-80
2023/01/06 06:55:48;;;;;;;1.40;0.60;;;13.60;99.90;;;;;;5048542;28;20642;-79
2023/01/06 06:58:13;;;;;;;1.37;0.43;;;13.60;99.90;;;;;;5048834;28;20180;-78
2023/01/06 07:00:39;;;;;;;1.30;0.50;;;13.60;99.90;;;;;;5048698;28;20177;-78
2023/01/06 07:03:05;;;;;;;1.43;0.50;;;13.60;99.90;;;;;;5048201;28;20264;-79
2023/01/06 07:05:31;;;;;;;1.30;0.53;;;13.60;99.90;;;;;;5049498;28;20655;-79
2023/01/06 07:07:57;;;;;;;1.40;0.60;;;13.60;99.90;;;;;;5053216;28;20181;-79
2023/01/06 07:10:22;;;;;;;1.10;0.50;;;13.60;99.90;;;;;;5061228;28;20189;-79
2023/01/06 07:12:48;;;;;;;2.90;0.50;;;13.60;99.90;;;;;;5061730;28;20239;-79
2023/01/06 07:15:14;;;;;;;1.20;0.40;;;13.60;99.90;;;;;;5046831;28;20184;-79
2023/01/06 07:17:40;;;;;;;3.37;0.60;;;13.60;99.90;;;;;;5066437;28;20184;-80
2023/01/06 07:20:07;;;;;;;1.30;0.50;;;13.60;99.90;;;;;;5069468;28;20177;-80
2023/01/06 07:22:37;;;;;;;1.27;0.50;;;13.60;99.90;;;;;;5062355;28;20623;-79
2023/01/06 07:25:07;;;;;;;1.43;0.50;;;13.60;99.90;;;;;;5041131;28;20631;-80
2023/01/06 07:27:34;;;;;;;1.50;0.50;;;13.60;99.90;;;;;;5057792;28;20576;-79
2023/01/06 07:30:00;;;;;;;1.30;0.60;;;13.60;99.90;;;;;;5057029;28;20176;-80
2023/01/06 07:32:26;;;;;;;1.70;0.47;;;13.60;99.90;;;;;;5060586;28;20618;-80
2023/01/06 07:34:52;;;;;;;1.23;0.47;;;13.60;99.90;;;;;;5057732;28;20678;-80
2023/01/06 07:37:18;;;;;;;1.10;0.50;;;13.60;99.90;;;;;;5049804;28;20193;-80
2023/01/06 07:39:43;;;;;;;1.50;0.70;;;13.50;99.90;;;;;;5059647;28;20176;-80
2023/01/06 07:42:10;;;;;;;2.07;0.50;;;13.60;99.90;;;;;;5046780;28;20200;-80
2023/01/06 07:44:36;;;;;;;1.83;0.60;;;13.50;99.90;;;;;;5052165;28;20201;-80
2023/01/06 07:47:02;;;;;;;2.67;0.70;;;13.60;99.90;;;;;;5053468;28;20618;-81
2023/01/06 07:49:28;;;;;;;1.30;0.67;;;13.50;99.90;;;;;;5052340;28;20214;-80
2023/01/06 07:51:53;;;;;;;2.37;0.60;;;13.60;99.90;;;;;;5057684;28;20599;-80
2023/01/06 07:54:19;;;;;;;4.07;0.60;;;13.60;99.90;;;;;;5053060;28;20229;-80
2023/01/06 07:56:45;;;;;;;1.60;0.63;;;13.60;99.90;;;;;;5052659;28;20684;-80
2023/01/06 07:59:10;;;;;;;1.90;0.67;;;13.60;99.90;;;;;;5034906;28;20177;-81
2023/01/06 08:01:36;;;;;;;6.03;0.60;;;13.60;99.90;;;;;;5053387;28;20672;-81
2023/01/06 08:04:03;;;;;;;2.97;0.80;;;13.60;99.90;;;;;;5034882;28;20295;-82
2023/01/06 08:06:28;;;;;;;2.30;0.70;;;13.60;99.90;;;;;;5051827;28;20600;-82
2023/01/06 08:08:54;;;;;;;1.90;0.70;;;13.70;99.90;;;;;;5052986;28;20586;-83
2023/01/06 08:11:20;;;;;;;3.20;1.10;;;13.70;99.90;;;;;;5052663;28;20189;-82
2023/01/06 08:13:46;;;;;;;1.77;0.70;;;13.70;99.90;;;;;;5053302;28;21006;-82
2023/01/06 08:16:12;;;;;;;1.70;0.57;;;13.70;99.90;;;;;;5053652;28;20682;-82
2023/01/06 08:18:38;;;;;;;2.10;0.70;;;13.70;99.90;;;;;;5052537;28;20947;-82
2023/01/06 08:21:06;;;;;;;1.75;0.65;;;13.80;99.90;;;;;;5053534;28;20226;-82
2023/01/06 08:23:33;;;;;;;1.30;0.52;;;13.80;99.90;;;;;;5035470;28;20547;-82
2023/01/06 08:26:04;;;;;;;2.70;0.80;;;13.80;99.90;;;;;;5069841;28;20231;-82
2023/01/06 08:28:30;;;;;;;2.90;0.60;;;13.80;99.90;;;;;;5050661;28;20623;-84
2023/01/06 08:30:56;;;;;;;2.80;0.57;;;13.80;99.90;;;;;;5056755;28;20587;-83
2023/01/06 08:33:24;;;;;;;1.40;0.57;;;13.80;99.90;;;;;;5052447;28;20616;-83
2023/01/06 08:36:00;;;;;;;2.27;0.50;;;13.90;99.90;;;;;;5042723;28;20586;-84
2023/01/06 08:38:28;;;;;;;1.40;0.55;;;13.90;99.90;;;;;;5033990;28;20587;-83
2023/01/06 08:40:55;;;;;;;1.50;0.50;;;13.90;99.90;;;;;;5047352;28;20196;-83
2023/01/06 08:43:21;;;;;;;1.33;0.60;;;13.90;99.90;;;;;;5056953;28;20613;-81
2023/01/06 08:45:46;;;;;;;1.67;0.50;;;14.00;99.90;;;;;;5061347;28;21014;-82
2023/01/06 08:48:13;;;;;;;1.73;0.60;;;14.00;99.90;;;;;;5051188;28;20590;-82
2023/01/06 08:50:39;;;;;;;2.43;0.50;;;14.00;99.90;;;;;;5051327;28;20218;-83
2023/01/06 08:53:06;;;;;;;1.47;0.60;;;14.00;99.90;;;;;;5051371;28;20622;-82
2023/01/06 08:55:31;;;;;;;1.30;0.60;;;14.00;99.90;;;;;;5051746;28;20575;-81
2023/01/06 08:57:57;;;;;;;1.40;0.70;;;14.00;99.90;;;;;;5052091;28;20584;-80
2023/01/06 09:00:23;;;;;;;1.70;0.60;;;14.00;99.90;;;;;;5051609;28;20176;-79
2023/01/06 09:02:48;;;;;;;1.50;0.90;;;14.00;99.90;;;;;;5050379;28;20675;-80
2023/01/06 09:05:14;;;;;;;1.60;0.93;;;14.00;99.90;;;;;;5017060;28;20201;-81
2023/01/06 09:07:40;;;;;;;2.30;1.10;;;14.10;99.90;;;;;;5053199;28;20536;-82
2023/01/06 09:10:06;;;;;;;1.73;0.60;;;14.10;99.90;;;;;;5051679;28;20165;-82
2023/01/06 09:12:32;;;;;;;2.37;0.80;;;14.10;99.90;;;;;;5049942;28;20196;-85
2023/01/06 09:14:58;;;;;;;2.35;1.20;;;14.10;99.90;;;;;;5032613;28;20727;-83
2023/01/06 09:17:24;;;;;;;1.67;0.80;;;14.10;99.90;;;;;;5051667;28;20545;-84
2023/01/06 09:19:50;;;;;;;1.60;0.80;;;14.10;99.90;;;;;;5051709;28;20595;-82
2023/01/06 09:22:15;;;;;;;2.23;0.73;;;14.20;99.90;;;;;;5050801;28;20610;-81
2023/01/06 09:24:41;;;;;;;1.23;0.57;;;14.30;99.90;;;;;;5049921;28;20209;-82
2023/01/06 09:27:07;;;;;;;2.07;0.70;;;14.30;99.90;;;;;;5046395;28;20195;-79
2023/01/06 09:29:32;;;;;;;2.03;0.80;;;14.40;99.90;;;;;;5052336;28;20647;-80
2023/01/06 09:31:58;;;;;;;4.30;0.80;;;14.40;99.90;;;;;;5051082;28;20200;-80
2023/01/06 09:34:24;;;;;;;2.40;0.97;;;14.40;99.90;;;;;;5052757;28;20528;-81
2023/01/06 09:36:49;;;;;;;1.93;0.70;;;14.50;99.90;;;;;;5053299;28;20237;-83
2023/01/06 09:39:15;;;;;;;1.40;0.50;;;14.50;99.90;;;;;;5035124;28;20524;-79
2023/01/06 09:41:59;;;;;;;2.00;0.80;;;14.60;99.90;;;;;;5051420;28;20254;-83
2023/01/06 09:44:32;;;;;;;1.10;0.40;;;14.60;99.90;;;;;;5055545;28;20204;-84
2023/01/06 09:47:00;;;;;;;1.30;0.53;;;14.60;99.90;;;;;;5049952;28;20609;-84
2023/01/06 09:49:41;;;;;;;1.17;0.47;;;14.60;99.90;;;;;;5048719;28;21138;-84
2023/01/06 09:52:30;;;;;;;1.50;0.50;;;14.70;99.90;;;;;;5034319;28;20611;-83
2023/01/06 09:55:01;;;;;;;1.10;0.40;;;14.70;99.90;;;;;;5052953;28;20583;-83
2023/01/06 09:57:52;;;;;;;2.00;0.60;;;14.70;99.90;;;;;;5050776;28;21283;-84
2023/01/06 10:00:53;;;;;;;1.77;0.50;;;14.70;99.90;;;;;;5050044;28;20686;-80
2023/01/06 10:03:24;;;;;;;1.63;0.50;;;14.70;99.90;;;;;;5065256;28;21151;-83
2023/01/06 10:06:15;;;;;;;1.10;0.50;;;14.80;99.90;;;;;;5057712;28;20712;-82
2023/01/06 10:08:50;;;;;;;1.20;0.50;;;14.80;99.90;;;;;;5049947;28;20718;-80
2023/01/06 10:11:31;;;;;;;1.20;0.50;;;14.80;99.90;;;;;;5043429;28;20630;-79
2023/01/06 10:14:09;;;;;;;1.20;0.50;;;14.80;99.90;;;;;;5038577;28;20656;-79
2023/01/06 10:16:49;;;;;;;1.77;0.90;;;14.90;99.90;;;;;;5049601;28;20631;-82
2023/01/06 10:19:30;;;;;;;1.90;0.40;;;14.90;99.90;;;;;;5049380;28;20575;-82
2023/01/06 10:22:05;;;;;;;1.17;0.40;;;14.90;99.90;;;;;;5053559;28;20619;-78
2023/01/06 10:25:12;;;;;;;1.87;0.40;;;15.00;99.90;;;;;;5050093;28;20631;-81
2023/01/06 10:27:52;;;;;;;1.10;0.40;;;14.90;99.90;;;;;;5026714;28;21009;-78
2023/01/06 10:30:31;;;;;;;1.10;0.40;;;14.90;99.90;;;;;;5045818;28;20618;-79
2023/01/06 10:32:57;;;;;;;1.10;0.40;;;14.90;99.90;;;;;;5048395;28;20714;-78
2023/01/06 10:35:25;;;;;;;1.87;0.50;;;14.80;99.90;;;;;;5017411;28;20615;-79
2023/01/06 10:37:52;;;;;;;1.40;0.50;;;14.70;99.90;;;;;;5048541;28;20580;-78
2023/01/06 10:40:24;;;;;;;1.37;0.50;;;14.70;99.90;;;;;;5050071;28;20997;-78
2023/01/06 10:43:09;;;;;;;2.00;0.50;;;14.70;99.90;;;;;;5049146;28;20615;-78
2023/01/06 10:45:46;;;;;;;1.33;0.50;;;14.60;99.90;;;;;;5049858;28;20978;-78
2023/01/06 10:48:22;;;;;;;1.17;0.50;;;14.60;99.90;;;;;;5048474;28;20955;-78
2023/01/06 10:50:49;;;;;;;1.20;0.50;;;14.60;99.90;;;;;;5048468;28;20582;-78
2023/01/06 10:53:16;;;;;;;1.67;0.53;;;14.60;99.90;;;;;;5048864;28;20647;-78
2023/01/06 10:55:55;;;;;;;1.10;0.40;;;14.60;99.90;;;;;;5048928;28;20567;-78
2023/01/06 10:58:36;;;;;;;2.13;0.60;;;14.70;99.90;;;;;;5054265;28;20567;-78
2023/01/06 11:01:11;;;;;;;1.10;0.40;;;14.60;99.90;;;;;;5048491;28;20636;-78
2023/01/06 11:03:41;;;;;;;1.17;0.53;;;14.60;99.90;;;;;;5047745;28;20725;-78
2023/01/06 11:06:27;;;;;;;1.20;0.50;;;14.70;99.90;;;;;;5049791;28;21022;-78
2023/01/06 11:08:53;;;;;;;1.10;0.40;;;14.70;99.90;;;;;;5031989;28;20580;-78
2023/01/06 11:11:20;;;;;;;1.20;0.50;;;14.80;99.90;;;;;;5062895;28;20607;-79
2023/01/06 11:13:48;;;;;;;1.10;0.40;;;14.90;99.90;;;;;;5048887;28;20574;-79
2023/01/06 11:16:24;;;;;;;2.60;0.50;;;15.00;99.90;;;;;;5049921;28;20924;-79
2023/01/06 11:18:59;;;;;;;1.30;0.63;;;15.20;99.90;;;;;;5030983;28;20587;-79
2023/01/06 11:21:45;;;;;;;1.10;0.40;;;15.30;99.90;;;;;;5047657;28;20634;-79
2023/01/06 11:24:19;;;;;;;1.97;0.60;;;15.40;99.90;;;;;;5048888;28;20654;-77
2023/01/06 11:26:54;;;;;;;1.20;0.53;;;15.60;99.90;;;;;;5048477;28;20927;-77
2023/01/06 11:29:27;;;;;;;1.70;0.80;;;15.70;99.90;;;;;;5031479;28;20709;-78
2023/01/06 11:31:54;;;;;;;2.00;0.90;;;15.80;99.90;;;;;;5049286;28;20730;-78
2023/01/06 11:34:23;;;;;;;1.93;1.00;;;15.80;99.90;;;;;;5047679;28;20900;-78
2023/01/06 11:36:50;;;;;;;2.67;1.20;;;15.80;99.90;;;;;;5052308;28;20627;-83
2023/01/06 11:39:23;;;;;;;2.50;0.90;;;15.80;99.90;;;;;;5048616;28;20655;-84
2023/01/06 11:41:51;;;;;;;2.40;0.60;;;15.80;99.90;;;;;;5047920;28;20599;-84
2023/01/06 11:44:29;;;;;;;1.40;0.50;;;15.80;99.90;;;;;;5049714;28;20627;-83
2023/01/06 11:46:59;;;;;;;1.30;0.50;;;15.80;99.90;;;;;;5032651;28;20575;-83
2023/01/06 11:49:29;;;;;;;1.40;0.60;;;15.80;99.90;;;;;;5058427;28;20595;-83
2023/01/06 11:52:01;;;;;;;2.43;1.33;;;15.80;99.90;;;;;;5054136;28;20956;-83
2023/01/06 11:54:35;;;;;;;2.10;1.10;;;15.70;99.90;;;;;;5056338;28;20644;-83
2023/01/06 11:57:34;;;;;;;2.10;0.80;;;15.60;99.90;;;;;;5046451;28;20615;-80
2023/01/06 12:00:18;;;;;;;1.50;0.60;;;15.60;99.90;;;;;;5025724;28;20607;-80
2023/01/06 12:02:50;;;;;;;1.63;1.00;;;15.50;99.90;;;;;;5029993;28;20638;-82
2023/01/06 12:05:26;;;;;;;1.30;0.60;;;15.30;99.90;;;;;;5042235;28;20639;-80
2023/01/06 12:07:56;;;;;;;1.87;0.60;;;15.20;99.90;;;;;;5043383;28;20603;-81
2023/01/06 12:10:26;;;;;;;1.57;0.60;;;15.00;99.90;;;;;;5048922;28;20737;-79
2023/01/06 12:12:52;;;;;;;1.10;0.40;;;15.00;99.90;;;;;;5051508;28;20651;-81
2023/01/06 12:15:18;;;;;;;1.20;0.57;;;14.90;99.90;;;;;;5051474;28;20940;-79
2023/01/06 12:18:13;;;;;;;1.20;0.50;;;14.80;99.90;;;;;;5049268;28;20230;-79
2023/01/06 12:20:42;;;;;;;1.10;0.40;;;14.90;99.90;;;;;;5047776;28;20602;-80
2023/01/06 12:23:28;;;;;;;1.70;0.60;;;14.80;99.90;;;;;;5048021;28;20650;-79
2023/01/06 12:26:00;;;;;;;2.33;0.50;;;14.80;99.90;;;;;;5050921;28;20638;-78
2023/01/06 12:28:32;;;;;;;1.53;0.50;;;14.80;99.90;;;;;;5050563;28;20976;-79
2023/01/06 12:31:18;;;;;;;1.23;0.47;;;14.80;99.90;;;;;;5052621;28;20579;-79
2023/01/06 12:34:08;;;;;;;1.30;0.40;;;14.70;99.90;;;;;;5054028;28;20576;-80
2023/01/06 12:36:43;;;;;;;1.10;0.40;;;14.70;99.90;;;;;;5054359;28;20666;-80
2023/01/06 12:39:16;;;;;;;1.40;0.50;;;14.70;99.90;;;;;;5053718;28;20606;-81
2023/01/06 12:41:55;;;;;;;1.17;0.50;;;14.60;99.90;;;;;;5036224;28;21225;-79
2023/01/06 12:44:21;;;;;;;1.10;0.40;;;14.60;99.90;;;;;;5052351;28;20738;-79
2023/01/06 12:46:57;;;;;;;1.27;0.50;;;14.50;99.90;;;;;;5052476;28;21130;-79
2023/01/06 12:49:55;;;;;;;1.10;0.40;;;14.50;99.90;;;;;;5052373;28;20165;-79
2023/01/06 12:52:44;;;;;;;1.73;0.40;;;14.50;99.90;;;;;;5040955;28;20673;-80
2023/01/06 12:55:38;;;;;;;1.10;0.50;;;14.50;99.90;;;;;;5062942;28;20686;-80
2023/01/06 12:58:16;;;;;;;1.87;0.70;;;14.50;99.90;;;;;;5052248;28;20679;-80
2023/01/06 13:01:01;;;;;;;1.20;0.50;;;14.50;99.90;;;;;;5052095;28;20582;-80
2023/01/06 13:03:55;;;;;;;1.47;0.60;;;14.50;99.90;;;;;;5051799;28;20571;-79
2023/01/06 13:06:34;;;;;;;1.77;0.57;;;14.60;99.90;;;;;;5048628;28;21166;-79
2023/01/06 13:09:37;;;;;;;1.37;0.60;;;14.60;99.90;;;;;;5033342;28;20580;-78
2023/01/06 13:13:04;;;;;;;2.23;0.60;;;14.60;99.90;;;;;;5047252;28;20990;-79
2023/01/06 13:16:16;;;;;;;1.40;0.50;;;14.60;99.90;;;;;;5048889;28;20582;-80
2023/01/06 13:19:02;;;;;;;2.60;1.10;;;14.60;99.90;;;;;;5032330;28;20679;-80